sensor_id;sensor_type;location;lat;lon;timestamp;P1;durP1;ratioP1;P2;durP2;ratioP2
78458;SDS011;67753;42.684;23.330;2023-05-07T00:01:05;14.40;;;13.00;;
78458;SDS011;67753;42.684;23.330;2023-05-07T00:03:07;13.60;;;12.20;;
78458;SDS011;67753;42.684;23.330;2023-05-07T00:05:10;14.37;;;12.87;;
78458;SDS011;67753;42.684;23.330;2023-05-07T00:07:12;15.50;;;14.00;;
78458;SDS011;67753;42.684;23.330;2023-05-07T00:09:14;13.97;;;12.67;;
78458;SDS011;67753;42.684;23.330;2023-05-07T00:11:18;13.70;;;12.40;;
78458;SDS011;67753;42.684;23.330;2023-05-07T00:13:20;14.80;;;13.40;;
78458;SDS011;67753;42.684;23.330;2023-05-07T00:15:22;14.10;;;12.70;;
78458;SDS011;67753;42.684;23.330;2023-05-07T00:17:24;14.60;;;13.07;;
78458;SDS011;67753;42.684;23.330;2023-05-07T00:19:25;13.73;;;12.33;;
78458;SDS011;67753;42.684;23.330;2023-05-07T00:21:27;13.93;;;12.63;;
78458;SDS011;67753;42.684;23.330;2023-05-07T00:23:30;14.10;;;12.73;;
78458;SDS011;67753;42.684;23.330;2023-05-07T00:25:33;14.23;;;12.83;;
78458;SDS011;67753;42.684;23.330;2023-05-07T00:27:36;13.33;;;12.03;;
78458;SDS011;67753;42.684;23.330;2023-05-07T00:29:40;14.50;;;13.13;;
78458;SDS011;67753;42.684;23.330;2023-05-07T00:31:42;14.73;;;12.63;;
78458;SDS011;67753;42.684;23.330;2023-05-07T00:33:44;15.77;;;13.03;;
78458;SDS011;67753;42.684;23.330;2023-05-07T00:35:46;13.40;;;12.20;;
78458;SDS011;67753;42.684;23.330;2023-05-07T00:37:48;15.27;;;13.67;;
78458;SDS011;67753;42.684;23.330;2023-05-07T00:39:49;17.03;;;13.67;;
78458;SDS011;67753;42.684;23.330;2023-05-07T00:41:51;18.23;;;14.07;;
78458;SDS011;67753;42.684;23.330;2023-05-07T00:43:54;14.60;;;13.17;;
78458;SDS011;67753;42.684;23.330;2023-05-07T00:45:56;15.40;;;13.10;;
78458;SDS011;67753;42.684;23.330;2023-05-07T00:47:59;14.83;;;13.30;;
78458;SDS011;67753;42.684;23.330;2023-05-07T00:50:02;15.23;;;13.50;;
78458;SDS011;67753;42.684;23.330;2023-05-07T00:52:06;17.27;;;13.33;;
78458;SDS011;67753;42.684;23.330;2023-05-07T00:54:08;13.97;;;12.57;;
78458;SDS011;67753;42.684;23.330;2023-05-07T00:56:14;15.13;;;13.47;;
78458;SDS011;67753;42.684;23.330;2023-05-07T00:58:16;14.67;;;13.27;;
78458;SDS011;67753;42.684;23.330;2023-05-07T01:00:19;14.23;;;12.80;;
78458;SDS011;67753;42.684;23.330;2023-05-07T01:02:21;14.50;;;13.07;;
78458;SDS011;67753;42.684;23.330;2023-05-07T01:04:23;13.27;;;12.10;;
78458;SDS011;67753;42.684;23.330;2023-05-07T01:06:26;13.67;;;12.40;;
78458;SDS011;67753;42.684;23.330;2023-05-07T01:08:29;14.87;;;13.43;;
78458;SDS011;67753;42.684;23.330;2023-05-07T01:10:32;14.17;;;12.87;;
78458;SDS011;67753;42.684;23.330;2023-05-07T01:12:34;13.17;;;11.97;;
78458;SDS011;67753;42.684;23.330;2023-05-07T01:14:41;14.67;;;12.57;;
78458;SDS011;67753;42.684;23.330;2023-05-07T01:16:44;13.37;;;12.17;;
78458;SDS011;67753;42.684;23.330;2023-05-07T01:18:46;14.33;;;12.87;;
78458;SDS011;67753;42.684;23.330;2023-05-07T01:20:48;13.97;;;12.57;;
78458;SDS011;67753;42.684;23.330;2023-05-07T01:22:52;15.73;;;13.20;;
78458;SDS011;67753;42.684;23.330;2023-05-07T01:24:55;13.43;;;12.10;;
78458;SDS011;67753;42.684;23.330;2023-05-07T01:26:57;13.90;;;12.47;;
78458;SDS011;67753;42.684;23.330;2023-05-07T01:28:59;13.93;;;12.53;;
78458;SDS011;67753;42.684;23.330;2023-05-07T01:31:02;14.67;;;13.13;;
78458;SDS011;67753;42.684;23.330;2023-05-07T01:33:08;13.30;;;12.00;;
78458;SDS011;67753;42.684;23.330;2023-05-07T01:35:14;14.00;;;12.50;;
78458;SDS011;67753;42.684;23.330;2023-05-07T01:37:19;13.43;;;12.20;;
78458;SDS011;67753;42.684;23.330;2023-05-07T01:39:23;14.37;;;12.93;;
78458;SDS011;67753;42.684;23.330;2023-05-07T01:41:27;13.90;;;12.53;;
78458;SDS011;67753;42.684;23.330;2023-05-07T01:43:29;12.30;;;11.30;;
78458;SDS011;67753;42.684;23.330;2023-05-07T01:45:32;13.37;;;12.03;;
78458;SDS011;67753;42.684;23.330;2023-05-07T01:47:35;12.07;;;10.77;;
78458;SDS011;67753;42.684;23.330;2023-05-07T01:49:38;13.13;;;11.83;;
78458;SDS011;67753;42.684;23.330;2023-05-07T01:51:40;13.20;;;12.00;;
78458;SDS011;67753;42.684;23.330;2023-05-07T01:53:42;12.70;;;11.40;;
78458;SDS011;67753;42.684;23.330;2023-05-07T01:55:47;12.77;;;11.57;;
78458;SDS011;67753;42.684;23.330;2023-05-07T01:57:49;15.30;;;11.93;;
78458;SDS011;67753;42.684;23.330;2023-05-07T01:59:51;12.50;;;11.30;;
78458;SDS011;67753;42.684;23.330;2023-05-07T02:01:53;11.47;;;10.27;;
78458;SDS011;67753;42.684;23.330;2023-05-07T02:03:55;12.13;;;10.47;;
78458;SDS011;67753;42.684;23.330;2023-05-07T02:05:57;11.17;;;9.80;;
78458;SDS011;67753;42.684;23.330;2023-05-07T02:07:58;10.43;;;9.63;;
78458;SDS011;67753;42.684;23.330;2023-05-07T02:10:00;11.17;;;10.07;;
78458;SDS011;67753;42.684;23.330;2023-05-07T02:12:04;11.00;;;9.90;;
78458;SDS011;67753;42.684;23.330;2023-05-07T02:14:06;10.10;;;9.20;;
78458;SDS011;67753;42.684;23.330;2023-05-07T02:16:08;9.80;;;8.90;;
78458;SDS011;67753;42.684;23.330;2023-05-07T02:18:10;10.33;;;9.33;;
78458;SDS011;67753;42.684;23.330;2023-05-07T02:20:12;10.47;;;9.50;;
78458;SDS011;67753;42.684;23.330;2023-05-07T02:22:14;9.80;;;8.80;;
78458;SDS011;67753;42.684;23.330;2023-05-07T02:24:16;10.10;;;9.10;;
78458;SDS011;67753;42.684;23.330;2023-05-07T02:26:18;8.93;;;8.23;;
78458;SDS011;67753;42.684;23.330;2023-05-07T02:28:23;9.50;;;8.70;;
78458;SDS011;67753;42.684;23.330;2023-05-07T02:30:25;9.40;;;8.47;;
78458;SDS011;67753;42.684;23.330;2023-05-07T02:32:27;9.20;;;8.30;;
78458;SDS011;67753;42.684;23.330;2023-05-07T02:34:29;8.50;;;7.70;;
78458;SDS011;67753;42.684;23.330;2023-05-07T02:36:31;9.20;;;8.30;;
78458;SDS011;67753;42.684;23.330;2023-05-07T02:38:32;10.10;;;9.13;;
78458;SDS011;67753;42.684;23.330;2023-05-07T02:40:33;9.93;;;9.00;;
78458;SDS011;67753;42.684;23.330;2023-05-07T02:42:38;10.30;;;9.07;;
78458;SDS011;67753;42.684;23.330;2023-05-07T02:44:42;10.77;;;9.80;;
78458;SDS011;67753;42.684;23.330;2023-05-07T02:46:44;9.43;;;8.53;;
78458;SDS011;67753;42.684;23.330;2023-05-07T02:48:45;10.43;;;9.37;;
78458;SDS011;67753;42.684;23.330;2023-05-07T02:50:47;10.57;;;9.50;;
78458;SDS011;67753;42.684;23.330;2023-05-07T02:52:49;10.30;;;9.30;;
78458;SDS011;67753;42.684;23.330;2023-05-07T02:54:51;10.10;;;9.20;;
78458;SDS011;67753;42.684;23.330;2023-05-07T02:56:55;11.00;;;9.90;;
78458;SDS011;67753;42.684;23.330;2023-05-07T02:58:57;9.00;;;8.30;;
78458;SDS011;67753;42.684;23.330;2023-05-07T03:01:01;9.97;;;9.13;;
78458;SDS011;67753;42.684;23.330;2023-05-07T03:03:03;9.53;;;8.70;;
78458;SDS011;67753;42.684;23.330;2023-05-07T03:05:05;9.43;;;8.57;;
78458;SDS011;67753;42.684;23.330;2023-05-07T03:07:07;9.53;;;8.67;;
78458;SDS011;67753;42.684;23.330;2023-05-07T03:09:09;9.90;;;9.00;;
78458;SDS011;67753;42.684;23.330;2023-05-07T03:11:12;10.47;;;9.47;;
78458;SDS011;67753;42.684;23.330;2023-05-07T03:13:14;9.90;;;9.10;;
78458;SDS011;67753;42.684;23.330;2023-05-07T03:15:16;11.90;;;8.40;;
78458;SDS011;67753;42.684;23.330;2023-05-07T03:17:19;8.97;;;8.13;;
78458;SDS011;67753;42.684;23.330;2023-05-07T03:19:22;10.57;;;9.67;;
78458;SDS011;67753;42.684;23.330;2023-05-07T03:21:23;10.43;;;9.43;;
78458;SDS011;67753;42.684;23.330;2023-05-07T03:23:26;10.00;;;9.20;;
78458;SDS011;67753;42.684;23.330;2023-05-07T03:25:28;10.20;;;9.17;;
78458;SDS011;67753;42.684;23.330;2023-05-07T03:27:31;9.40;;;8.50;;
78458;SDS011;67753;42.684;23.330;2023-05-07T03:29:33;10.67;;;9.57;;
78458;SDS011;67753;42.684;23.330;2023-05-07T03:31:35;10.23;;;9.33;;
78458;SDS011;67753;42.684;23.330;2023-05-07T03:33:49;10.27;;;9.37;;
78458;SDS011;67753;42.684;23.330;2023-05-07T03:35:52;10.03;;;9.03;;
78458;SDS011;67753;42.684;23.330;2023-05-07T03:37:54;11.30;;;10.20;;
78458;SDS011;67753;42.684;23.330;2023-05-07T03:39:56;11.77;;;10.67;;
78458;SDS011;67753;42.684;23.330;2023-05-07T03:41:58;12.67;;;11.47;;
78458;SDS011;67753;42.684;23.330;2023-05-07T03:44:01;12.27;;;11.07;;
78458;SDS011;67753;42.684;23.330;2023-05-07T03:46:02;11.20;;;10.10;;
78458;SDS011;67753;42.684;23.330;2023-05-07T03:48:04;11.43;;;10.43;;
78458;SDS011;67753;42.684;23.330;2023-05-07T03:50:09;10.97;;;9.97;;
78458;SDS011;67753;42.684;23.330;2023-05-07T03:52:11;11.00;;;9.10;;
78458;SDS011;67753;42.684;23.330;2023-05-07T03:54:14;10.93;;;9.93;;
78458;SDS011;67753;42.684;23.330;2023-05-07T03:56:15;10.53;;;9.63;;
78458;SDS011;67753;42.684;23.330;2023-05-07T03:58:18;12.37;;;11.13;;
78458;SDS011;67753;42.684;23.330;2023-05-07T04:00:19;12.70;;;11.43;;
78458;SDS011;67753;42.684;23.330;2023-05-07T04:02:22;11.93;;;10.87;;
78458;SDS011;67753;42.684;23.330;2023-05-07T04:04:24;12.20;;;11.00;;
78458;SDS011;67753;42.684;23.330;2023-05-07T04:06:28;12.87;;;11.70;;
78458;SDS011;67753;42.684;23.330;2023-05-07T04:08:30;13.23;;;11.83;;
78458;SDS011;67753;42.684;23.330;2023-05-07T04:10:32;12.03;;;10.87;;
78458;SDS011;67753;42.684;23.330;2023-05-07T04:12:34;13.00;;;11.63;;
78458;SDS011;67753;42.684;23.330;2023-05-07T04:14:35;13.03;;;10.90;;
78458;SDS011;67753;42.684;23.330;2023-05-07T04:16:38;13.07;;;11.87;;
78458;SDS011;67753;42.684;23.330;2023-05-07T04:18:40;14.30;;;12.60;;
78458;SDS011;67753;42.684;23.330;2023-05-07T04:20:42;14.30;;;13.00;;
78458;SDS011;67753;42.684;23.330;2023-05-07T04:22:46;13.73;;;12.33;;
78458;SDS011;67753;42.684;23.330;2023-05-07T04:24:48;14.40;;;13.10;;
78458;SDS011;67753;42.684;23.330;2023-05-07T04:26:50;13.73;;;12.43;;
78458;SDS011;67753;42.684;23.330;2023-05-07T04:28:52;15.00;;;13.60;;
78458;SDS011;67753;42.684;23.330;2023-05-07T04:30:55;14.00;;;12.63;;
78458;SDS011;67753;42.684;23.330;2023-05-07T04:32:57;13.27;;;12.03;;
78458;SDS011;67753;42.684;23.330;2023-05-07T04:34:58;14.43;;;12.97;;
78458;SDS011;67753;42.684;23.330;2023-05-07T04:37:00;13.67;;;12.43;;
78458;SDS011;67753;42.684;23.330;2023-05-07T04:39:04;14.00;;;12.47;;
78458;SDS011;67753;42.684;23.330;2023-05-07T04:41:06;14.30;;;12.70;;
78458;SDS011;67753;42.684;23.330;2023-05-07T04:43:11;13.67;;;12.50;;
78458;SDS011;67753;42.684;23.330;2023-05-07T04:45:13;13.57;;;12.37;;
78458;SDS011;67753;42.684;23.330;2023-05-07T04:47:15;14.30;;;13.00;;
78458;SDS011;67753;42.684;23.330;2023-05-07T04:49:17;15.43;;;13.93;;
78458;SDS011;67753;42.684;23.330;2023-05-07T04:51:19;14.07;;;12.83;;
78458;SDS011;67753;42.684;23.330;2023-05-07T04:53:21;13.70;;;12.30;;
78458;SDS011;67753;42.684;23.330;2023-05-07T04:55:24;14.00;;;12.70;;
78458;SDS011;67753;42.684;23.330;2023-05-07T04:57:26;13.63;;;12.43;;
78458;SDS011;67753;42.684;23.330;2023-05-07T04:59:28;13.93;;;12.50;;
78458;SDS011;67753;42.684;23.330;2023-05-07T05:01:30;15.70;;;13.13;;
78458;SDS011;67753;42.684;23.330;2023-05-07T05:03:32;15.20;;;13.80;;
78458;SDS011;67753;42.684;23.330;2023-05-07T05:05:35;15.13;;;13.67;;
78458;SDS011;67753;42.684;23.330;2023-05-07T05:07:37;14.70;;;13.20;;
78458;SDS011;67753;42.684;23.330;2023-05-07T05:09:39;14.40;;;13.13;;
78458;SDS011;67753;42.684;23.330;2023-05-07T05:11:42;15.53;;;14.03;;
78458;SDS011;67753;42.684;23.330;2023-05-07T05:13:44;15.93;;;14.53;;
78458;SDS011;67753;42.684;23.330;2023-05-07T05:15:48;15.07;;;13.73;;
78458;SDS011;67753;42.684;23.330;2023-05-07T05:17:49;15.23;;;13.93;;
78458;SDS011;67753;42.684;23.330;2023-05-07T05:19:52;14.47;;;13.17;;
78458;SDS011;67753;42.684;23.330;2023-05-07T05:21:54;15.83;;;14.27;;
78458;SDS011;67753;42.684;23.330;2023-05-07T05:23:56;15.63;;;14.23;;
78458;SDS011;67753;42.684;23.330;2023-05-07T05:25:58;15.27;;;13.73;;
78458;SDS011;67753;42.684;23.330;2023-05-07T05:28:02;15.90;;;14.33;;
78458;SDS011;67753;42.684;23.330;2023-05-07T05:30:04;15.30;;;13.80;;
78458;SDS011;67753;42.684;23.330;2023-05-07T05:32:07;16.50;;;14.97;;
78458;SDS011;67753;42.684;23.330;2023-05-07T05:34:09;15.27;;;13.67;;
78458;SDS011;67753;42.684;23.330;2023-05-07T05:36:11;15.37;;;13.97;;
78458;SDS011;67753;42.684;23.330;2023-05-07T05:38:14;15.30;;;13.87;;
78458;SDS011;67753;42.684;23.330;2023-05-07T05:40:16;14.60;;;13.20;;
78458;SDS011;67753;42.684;23.330;2023-05-07T05:42:18;15.87;;;14.27;;
78458;SDS011;67753;42.684;23.330;2023-05-07T05:44:21;15.37;;;14.07;;
78458;SDS011;67753;42.684;23.330;2023-05-07T05:46:23;15.80;;;14.30;;
78458;SDS011;67753;42.684;23.330;2023-05-07T05:48:25;15.43;;;13.93;;
78458;SDS011;67753;42.684;23.330;2023-05-07T05:50:27;15.00;;;13.50;;
78458;SDS011;67753;42.684;23.330;2023-05-07T05:52:28;15.00;;;13.47;;
78458;SDS011;67753;42.684;23.330;2023-05-07T05:54:32;18.07;;;15.07;;
78458;SDS011;67753;42.684;23.330;2023-05-07T05:56:34;14.83;;;13.53;;
78458;SDS011;67753;42.684;23.330;2023-05-07T05:58:36;15.10;;;13.80;;
78458;SDS011;67753;42.684;23.330;2023-05-07T06:00:41;15.40;;;14.00;;
78458;SDS011;67753;42.684;23.330;2023-05-07T06:02:43;15.43;;;14.10;;
78458;SDS011;67753;42.684;23.330;2023-05-07T06:04:44;16.00;;;14.50;;
78458;SDS011;67753;42.684;23.330;2023-05-07T06:06:48;16.33;;;14.67;;
78458;SDS011;67753;42.684;23.330;2023-05-07T06:08:50;15.40;;;13.97;;
78458;SDS011;67753;42.684;23.330;2023-05-07T06:10:51;16.33;;;14.73;;
78458;SDS011;67753;42.684;23.330;2023-05-07T06:12:53;15.67;;;14.07;;
78458;SDS011;67753;42.684;23.330;2023-05-07T06:14:55;14.20;;;13.00;;
78458;SDS011;67753;42.684;23.330;2023-05-07T06:18:35;15.90;;;14.50;;
78458;SDS011;67753;42.684;23.330;2023-05-07T06:20:38;16.10;;;14.57;;
78458;SDS011;67753;42.684;23.330;2023-05-07T06:22:39;15.13;;;13.83;;
78458;SDS011;67753;42.684;23.330;2023-05-07T06:24:41;15.90;;;14.43;;
78458;SDS011;67753;42.684;23.330;2023-05-07T06:26:43;19.10;;;17.40;;
78458;SDS011;67753;42.684;23.330;2023-05-07T06:28:58;22.80;;;20.47;;
78458;SDS011;67753;42.684;23.330;2023-05-07T06:31:10;21.37;;;19.20;;
78458;SDS011;67753;42.684;23.330;2023-05-07T06:33:13;16.60;;;15.10;;
78458;SDS011;67753;42.684;23.330;2023-05-07T06:35:16;17.07;;;15.47;;
78458;SDS011;67753;42.684;23.330;2023-05-07T06:37:18;17.73;;;15.93;;
78458;SDS011;67753;42.684;23.330;2023-05-07T06:39:20;25.60;;;23.17;;
78458;SDS011;67753;42.684;23.330;2023-05-07T06:41:22;32.03;;;29.03;;
78458;SDS011;67753;42.684;23.330;2023-05-07T06:43:24;22.43;;;20.37;;
78458;SDS011;67753;42.684;23.330;2023-05-07T06:45:26;21.13;;;19.10;;
78458;SDS011;67753;42.684;23.330;2023-05-07T06:47:29;18.10;;;16.30;;
78458;SDS011;67753;42.684;23.330;2023-05-07T06:49:31;15.57;;;13.97;;
78458;SDS011;67753;42.684;23.330;2023-05-07T06:51:35;13.60;;;12.40;;
78458;SDS011;67753;42.684;23.330;2023-05-07T06:53:36;14.60;;;13.10;;
78458;SDS011;67753;42.684;23.330;2023-05-07T06:55:38;14.03;;;12.77;;
78458;SDS011;67753;42.684;23.330;2023-05-07T06:57:41;23.50;;;20.87;;
78458;SDS011;67753;42.684;23.330;2023-05-07T06:59:43;37.77;;;32.17;;
78458;SDS011;67753;42.684;23.330;2023-05-07T07:01:44;18.73;;;16.83;;
78458;SDS011;67753;42.684;23.330;2023-05-07T07:03:46;45.63;;;37.97;;
78458;SDS011;67753;42.684;23.330;2023-05-07T07:05:51;40.63;;;35.10;;
78458;SDS011;67753;42.684;23.330;2023-05-07T07:08:01;20.67;;;18.47;;
78458;SDS011;67753;42.684;23.330;2023-05-07T07:10:03;18.97;;;17.00;;
78458;SDS011;67753;42.684;23.330;2023-05-07T07:12:06;18.73;;;16.73;;
78458;SDS011;67753;42.684;23.330;2023-05-07T07:14:08;16.67;;;15.00;;
78458;SDS011;67753;42.684;23.330;2023-05-07T07:16:11;15.40;;;13.90;;
78458;SDS011;67753;42.684;23.330;2023-05-07T07:18:13;12.90;;;11.70;;
78458;SDS011;67753;42.684;23.330;2023-05-07T07:20:15;14.70;;;13.30;;
78458;SDS011;67753;42.684;23.330;2023-05-07T07:22:17;13.40;;;11.77;;
78458;SDS011;67753;42.684;23.330;2023-05-07T07:24:21;12.50;;;11.33;;
78458;SDS011;67753;42.684;23.330;2023-05-07T07:26:22;14.83;;;13.33;;
78458;SDS011;67753;42.684;23.330;2023-05-07T07:28:24;42.57;;;38.33;;
78458;SDS011;67753;42.684;23.330;2023-05-07T07:30:34;18.27;;;16.57;;
78458;SDS011;67753;42.684;23.330;2023-05-07T07:32:36;19.03;;;17.30;;
78458;SDS011;67753;42.684;23.330;2023-05-07T07:34:38;14.30;;;12.93;;
78458;SDS011;67753;42.684;23.330;2023-05-07T07:36:41;13.20;;;12.10;;
78458;SDS011;67753;42.684;23.330;2023-05-07T07:38:43;18.37;;;16.27;;
78458;SDS011;67753;42.684;23.330;2023-05-07T07:40:47;15.30;;;13.80;;
78458;SDS011;67753;42.684;23.330;2023-05-07T07:42:49;13.37;;;12.17;;
78458;SDS011;67753;42.684;23.330;2023-05-07T07:44:50;16.93;;;15.40;;
78458;SDS011;67753;42.684;23.330;2023-05-07T07:46:55;17.60;;;16.00;;
78458;SDS011;67753;42.684;23.330;2023-05-07T07:48:57;14.10;;;12.60;;
78458;SDS011;67753;42.684;23.330;2023-05-07T07:50:59;13.83;;;12.57;;
78458;SDS011;67753;42.684;23.330;2023-05-07T07:53:01;15.70;;;14.03;;
78458;SDS011;67753;42.684;23.330;2023-05-07T07:55:03;13.90;;;12.50;;
78458;SDS011;67753;42.684;23.330;2023-05-07T07:57:08;13.43;;;12.20;;
78458;SDS011;67753;42.684;23.330;2023-05-07T07:59:10;14.63;;;13.37;;
78458;SDS011;67753;42.684;23.330;2023-05-07T08:01:13;15.53;;;13.97;;
78458;SDS011;67753;42.684;23.330;2023-05-07T08:03:16;14.50;;;13.17;;
78458;SDS011;67753;42.684;23.330;2023-05-07T08:05:19;13.55;;;12.20;;
78458;SDS011;67753;42.684;23.330;2023-05-07T08:07:21;16.95;;;14.82;;
78458;SDS011;67753;42.684;23.330;2023-05-07T08:09:23;13.45;;;11.95;;
78458;SDS011;67753;42.684;23.330;2023-05-07T08:11:24;14.40;;;13.00;;
78458;SDS011;67753;42.684;23.330;2023-05-07T08:13:29;13.35;;;12.15;;
78458;SDS011;67753;42.684;23.330;2023-05-07T08:15:31;13.40;;;11.20;;
78458;SDS011;67753;42.684;23.330;2023-05-07T08:17:33;11.20;;;10.20;;
78458;SDS011;67753;42.684;23.330;2023-05-07T08:19:35;11.95;;;10.45;;
78458;SDS011;67753;42.684;23.330;2023-05-07T08:21:38;11.10;;;9.88;;
78458;SDS011;67753;42.684;23.330;2023-05-07T08:23:40;11.02;;;10.00;;
78458;SDS011;67753;42.684;23.330;2023-05-07T08:25:42;11.23;;;10.20;;
78458;SDS011;67753;42.684;23.330;2023-05-07T08:27:44;13.55;;;10.57;;
78458;SDS011;67753;42.684;23.330;2023-05-07T08:29:47;10.23;;;9.23;;
78458;SDS011;67753;42.684;23.330;2023-05-07T08:31:50;11.15;;;10.20;;
78458;SDS011;67753;42.684;23.330;2023-05-07T08:33:51;10.32;;;9.38;;
78458;SDS011;67753;42.684;23.330;2023-05-07T08:35:53;10.38;;;9.50;;
78458;SDS011;67753;42.684;23.330;2023-05-07T08:37:55;9.73;;;8.73;;
78458;SDS011;67753;42.684;23.330;2023-05-07T08:39:56;9.20;;;8.45;;
78458;SDS011;67753;42.684;23.330;2023-05-07T08:42:00;10.10;;;9.02;;
78458;SDS011;67753;42.684;23.330;2023-05-07T08:44:04;12.60;;;9.02;;
78458;SDS011;67753;42.684;23.330;2023-05-07T08:46:11;9.95;;;9.07;;
78458;SDS011;67753;42.684;23.330;2023-05-07T08:48:18;10.52;;;9.18;;
78458;SDS011;67753;42.684;23.330;2023-05-07T08:50:23;10.25;;;9.27;;
78458;SDS011;67753;42.684;23.330;2023-05-07T08:52:26;10.15;;;8.27;;
78458;SDS011;67753;42.684;23.330;2023-05-07T08:54:28;8.40;;;7.60;;
78458;SDS011;67753;42.684;23.330;2023-05-07T08:56:32;8.15;;;7.30;;
78458;SDS011;67753;42.684;23.330;2023-05-07T08:58:34;11.02;;;7.80;;
78458;SDS011;67753;42.684;23.330;2023-05-07T09:00:37;8.90;;;8.00;;
78458;SDS011;67753;42.684;23.330;2023-05-07T09:02:42;9.25;;;7.32;;
78458;SDS011;67753;42.684;23.330;2023-05-07T09:04:43;7.68;;;6.55;;
78458;SDS011;67753;42.684;23.330;2023-05-07T09:06:45;6.50;;;5.90;;
78458;SDS011;67753;42.684;23.330;2023-05-07T09:08:51;7.75;;;7.05;;
78458;SDS011;67753;42.684;23.330;2023-05-07T09:10:54;8.10;;;7.30;;
78458;SDS011;67753;42.684;23.330;2023-05-07T09:12:55;8.10;;;7.25;;
78458;SDS011;67753;42.684;23.330;2023-05-07T09:14:57;7.93;;;7.18;;
78458;SDS011;67753;42.684;23.330;2023-05-07T09:17:00;7.78;;;7.07;;
78458;SDS011;67753;42.684;23.330;2023-05-07T09:19:04;7.63;;;6.90;;
78458;SDS011;67753;42.684;23.330;2023-05-07T09:21:06;7.97;;;7.28;;
78458;SDS011;67753;42.684;23.330;2023-05-07T09:23:11;7.00;;;6.40;;
78458;SDS011;67753;42.684;23.330;2023-05-07T09:25:13;10.73;;;7.57;;
78458;SDS011;67753;42.684;23.330;2023-05-07T09:27:15;8.10;;;6.63;;
78458;SDS011;67753;42.684;23.330;2023-05-07T09:29:17;7.82;;;6.68;;
78458;SDS011;67753;42.684;23.330;2023-05-07T09:31:19;6.97;;;6.28;;
78458;SDS011;67753;42.684;23.330;2023-05-07T09:33:24;8.30;;;6.00;;
78458;SDS011;67753;42.684;23.330;2023-05-07T09:35:30;7.05;;;6.35;;
78458;SDS011;67753;42.684;23.330;2023-05-07T09:37:31;6.03;;;5.50;;
78458;SDS011;67753;42.684;23.330;2023-05-07T09:39:40;6.65;;;5.88;;
78458;SDS011;67753;42.684;23.330;2023-05-07T09:41:43;7.22;;;5.68;;
78458;SDS011;67753;42.684;23.330;2023-05-07T09:43:45;6.93;;;6.22;;
78458;SDS011;67753;42.684;23.330;2023-05-07T09:45:47;6.72;;;5.50;;
78458;SDS011;67753;42.684;23.330;2023-05-07T09:47:53;7.07;;;5.22;;
78458;SDS011;67753;42.684;23.330;2023-05-07T09:49:56;5.40;;;4.90;;
78458;SDS011;67753;42.684;23.330;2023-05-07T09:52:00;5.38;;;4.88;;
78458;SDS011;67753;42.684;23.330;2023-05-07T09:54:03;6.32;;;5.35;;
78458;SDS011;67753;42.684;23.330;2023-05-07T09:56:06;5.18;;;4.72;;
78458;SDS011;67753;42.684;23.330;2023-05-07T09:58:08;5.25;;;4.80;;
78458;SDS011;67753;42.684;23.330;2023-05-07T10:00:13;5.82;;;5.07;;
78458;SDS011;67753;42.684;23.330;2023-05-07T10:02:19;4.80;;;4.35;;
78458;SDS011;67753;42.684;23.330;2023-05-07T10:04:21;4.60;;;4.30;;
78458;SDS011;67753;42.684;23.330;2023-05-07T10:06:24;5.28;;;4.47;;
78458;SDS011;67753;42.684;23.330;2023-05-07T10:08:28;5.13;;;4.72;;
78458;SDS011;67753;42.684;23.330;2023-05-07T10:10:32;5.30;;;4.80;;
78458;SDS011;67753;42.684;23.330;2023-05-07T10:12:35;5.50;;;4.95;;
78458;SDS011;67753;42.684;23.330;2023-05-07T10:14:39;4.93;;;4.63;;
78458;SDS011;67753;42.684;23.330;2023-05-07T10:16:41;5.40;;;4.85;;
78458;SDS011;67753;42.684;23.330;2023-05-07T10:18:44;4.82;;;4.43;;
78458;SDS011;67753;42.684;23.330;2023-05-07T10:20:46;5.38;;;3.85;;
78458;SDS011;67753;42.684;23.330;2023-05-07T10:22:49;4.88;;;3.88;;
78458;SDS011;67753;42.684;23.330;2023-05-07T10:24:54;4.10;;;3.80;;
78458;SDS011;67753;42.684;23.330;2023-05-07T10:27:01;4.60;;;4.30;;
78458;SDS011;67753;42.684;23.330;2023-05-07T10:29:07;4.78;;;4.00;;
78458;SDS011;67753;42.684;23.330;2023-05-07T10:31:24;4.60;;;4.20;;
78458;SDS011;67753;42.684;23.330;2023-05-07T10:33:37;5.47;;;4.25;;
78458;SDS011;67753;42.684;23.330;2023-05-07T10:35:42;4.85;;;4.45;;
78458;SDS011;67753;42.684;23.330;2023-05-07T10:37:46;4.55;;;4.20;;
78458;SDS011;67753;42.684;23.330;2023-05-07T10:39:49;4.38;;;3.97;;
78458;SDS011;67753;42.684;23.330;2023-05-07T10:42:57;4.40;;;4.00;;
78458;SDS011;67753;42.684;23.330;2023-05-07T10:45:11;4.55;;;4.25;;
78458;SDS011;67753;42.684;23.330;2023-05-07T10:47:15;6.07;;;5.57;;
78458;SDS011;67753;42.684;23.330;2023-05-07T10:49:18;4.60;;;4.30;;
78458;SDS011;67753;42.684;23.330;2023-05-07T10:51:21;5.03;;;4.38;;
78458;SDS011;67753;42.684;23.330;2023-05-07T10:53:24;6.65;;;5.53;;
78458;SDS011;67753;42.684;23.330;2023-05-07T10:55:29;5.03;;;4.53;;
78458;SDS011;67753;42.684;23.330;2023-05-07T10:57:34;5.50;;;4.97;;
78458;SDS011;67753;42.684;23.330;2023-05-07T10:59:41;5.20;;;4.70;;
78458;SDS011;67753;42.684;23.330;2023-05-07T11:01:49;6.45;;;5.82;;
78458;SDS011;67753;42.684;23.330;2023-05-07T11:06:17;4.80;;;4.32;;
78458;SDS011;67753;42.684;23.330;2023-05-07T11:08:19;7.53;;;6.72;;
78458;SDS011;67753;42.684;23.330;2023-05-07T11:10:21;6.20;;;5.47;;
78458;SDS011;67753;42.684;23.330;2023-05-07T11:15:05;5.20;;;4.70;;
78458;SDS011;67753;42.684;23.330;2023-05-07T11:17:08;6.47;;;5.40;;
78458;SDS011;67753;42.684;23.330;2023-05-07T11:19:11;6.40;;;5.15;;
78458;SDS011;67753;42.684;23.330;2023-05-07T11:21:14;4.82;;;4.43;;
78458;SDS011;67753;42.684;23.330;2023-05-07T11:23:55;4.72;;;4.32;;
78458;SDS011;67753;42.684;23.330;2023-05-07T11:26:02;8.13;;;4.40;;
78458;SDS011;67753;42.684;23.330;2023-05-07T11:28:07;5.07;;;4.57;;
78458;SDS011;67753;42.684;23.330;2023-05-07T11:30:13;5.75;;;3.90;;
78458;SDS011;67753;42.684;23.330;2023-05-07T11:32:22;4.97;;;4.55;;
78458;SDS011;67753;42.684;23.330;2023-05-07T11:34:25;4.63;;;4.30;;
78458;SDS011;67753;42.684;23.330;2023-05-07T11:36:31;6.32;;;4.40;;
78458;SDS011;67753;42.684;23.330;2023-05-07T11:38:34;4.47;;;4.18;;
78458;SDS011;67753;42.684;23.330;2023-05-07T11:40:48;5.25;;;4.45;;
78458;SDS011;67753;42.684;23.330;2023-05-07T11:42:50;8.40;;;7.22;;
78458;SDS011;67753;42.684;23.330;2023-05-07T11:44:52;5.35;;;4.85;;
78458;SDS011;67753;42.684;23.330;2023-05-07T11:46:56;6.57;;;4.63;;
78458;SDS011;67753;42.684;23.330;2023-05-07T11:48:58;4.85;;;4.55;;
78458;SDS011;67753;42.684;23.330;2023-05-07T11:51:02;8.27;;;7.45;;
78458;SDS011;67753;42.684;23.330;2023-05-07T11:53:07;5.45;;;4.43;;
78458;SDS011;67753;42.684;23.330;2023-05-07T11:55:09;5.20;;;4.70;;
78458;SDS011;67753;42.684;23.330;2023-05-07T11:57:14;4.88;;;4.47;;
78458;SDS011;67753;42.684;23.330;2023-05-07T11:59:19;4.78;;;4.38;;
78458;SDS011;67753;42.684;23.330;2023-05-07T12:01:21;6.45;;;5.63;;
78458;SDS011;67753;42.684;23.330;2023-05-07T12:03:24;4.35;;;3.92;;
78458;SDS011;67753;42.684;23.330;2023-05-07T12:05:28;5.63;;;4.15;;